sensor_id;sensor_type;location;lat;lon;timestamp;P1;durP1;ratioP1;P2;durP2;ratioP2
74100;SDS011;62462;52.530;21.682;2023-02-03T00:00:45;9.23;;;3.33;;
74100;SDS011;62462;52.530;21.682;2023-02-03T00:03:11;6.43;;;3.47;;
74100;SDS011;62462;52.530;21.682;2023-02-03T00:05:37;4.78;;;2.95;;
74100;SDS011;62462;52.530;21.682;2023-02-03T00:08:04;7.57;;;3.10;;
74100;SDS011;62462;52.530;21.682;2023-02-03T00:10:33;6.43;;;3.58;;
74100;SDS011;62462;52.530;21.682;2023-02-03T00:13:00;6.85;;;3.00;;
74100;SDS011;62462;52.530;21.682;2023-02-03T00:15:26;6.85;;;3.05;;
74100;SDS011;62462;52.530;21.682;2023-02-03T00:17:52;7.90;;;2.97;;
74100;SDS011;62462;52.530;21.682;2023-02-03T00:20:17;6.30;;;3.22;;
74100;SDS011;62462;52.530;21.682;2023-02-03T00:22:43;6.75;;;3.13;;
74100;SDS011;62462;52.530;21.682;2023-02-03T00:25:09;8.10;;;3.20;;
74100;SDS011;62462;52.530;21.682;2023-02-03T00:27:35;8.82;;;3.22;;
74100;SDS011;62462;52.530;21.682;2023-02-03T00:30:00;7.70;;;2.85;;
74100;SDS011;62462;52.530;21.682;2023-02-03T00:32:26;5.55;;;2.78;;
74100;SDS011;62462;52.530;21.682;2023-02-03T00:34:52;6.93;;;3.30;;
74100;SDS011;62462;52.530;21.682;2023-02-03T00:37:19;4.97;;;2.65;;
74100;SDS011;62462;52.530;21.682;2023-02-03T00:39:47;7.38;;;3.60;;
74100;SDS011;62462;52.530;21.682;2023-02-03T00:42:13;6.20;;;3.00;;
74100;SDS011;62462;52.530;21.682;2023-02-03T00:44:39;4.75;;;2.45;;
74100;SDS011;62462;52.530;21.682;2023-02-03T00:47:05;4.97;;;2.78;;
74100;SDS011;62462;52.530;21.682;2023-02-03T00:49:30;9.05;;;3.65;;
74100;SDS011;62462;52.530;21.682;2023-02-03T00:51:56;6.45;;;3.85;;
74100;SDS011;62462;52.530;21.682;2023-02-03T00:54:22;8.35;;;3.15;;
74100;SDS011;62462;52.530;21.682;2023-02-03T00:56:48;8.18;;;4.38;;
74100;SDS011;62462;52.530;21.682;2023-02-03T00:59:13;7.28;;;2.95;;
74100;SDS011;62462;52.530;21.682;2023-02-03T01:01:39;6.05;;;3.35;;
74100;SDS011;62462;52.530;21.682;2023-02-03T01:04:05;7.50;;;2.80;;
74100;SDS011;62462;52.530;21.682;2023-02-03T01:06:30;4.05;;;1.83;;
74100;SDS011;62462;52.530;21.682;2023-02-03T01:08:56;3.17;;;1.90;;
74100;SDS011;62462;52.530;21.682;2023-02-03T01:11:23;4.15;;;2.22;;
74100;SDS011;62462;52.530;21.682;2023-02-03T01:13:54;4.40;;;2.13;;
74100;SDS011;62462;52.530;21.682;2023-02-03T01:16:22;3.38;;;1.70;;
74100;SDS011;62462;52.530;21.682;2023-02-03T01:18:48;4.03;;;1.98;;
74100;SDS011;62462;52.530;21.682;2023-02-03T01:21:24;4.18;;;1.58;;
74100;SDS011;62462;52.530;21.682;2023-02-03T01:23:51;2.90;;;1.75;;
74100;SDS011;62462;52.530;21.682;2023-02-03T01:26:18;5.05;;;1.70;;
74100;SDS011;62462;52.530;21.682;2023-02-03T01:31:19;4.45;;;1.75;;
74100;SDS011;62462;52.530;21.682;2023-02-03T01:33:46;6.30;;;1.90;;
74100;SDS011;62462;52.530;21.682;2023-02-03T01:36:16;2.55;;;1.58;;
74100;SDS011;62462;52.530;21.682;2023-02-03T01:38:42;9.32;;;2.03;;
74100;SDS011;62462;52.530;21.682;2023-02-03T01:41:10;5.90;;;1.50;;
74100;SDS011;62462;52.530;21.682;2023-02-03T01:43:38;3.45;;;1.60;;
74100;SDS011;62462;52.530;21.682;2023-02-03T01:48:52;3.15;;;1.55;;
74100;SDS011;62462;52.530;21.682;2023-02-03T01:51:23;3.78;;;1.85;;
74100;SDS011;62462;52.530;21.682;2023-02-03T01:53:49;6.45;;;1.70;;
74100;SDS011;62462;52.530;21.682;2023-02-03T01:56:17;3.67;;;1.48;;
74100;SDS011;62462;52.530;21.682;2023-02-03T01:58:42;2.80;;;1.70;;
74100;SDS011;62462;52.530;21.682;2023-02-03T02:01:11;6.25;;;2.17;;
74100;SDS011;62462;52.530;21.682;2023-02-03T02:03:38;3.60;;;1.70;;
74100;SDS011;62462;52.530;21.682;2023-02-03T02:06:25;2.88;;;1.83;;
74100;SDS011;62462;52.530;21.682;2023-02-03T02:08:51;2.95;;;1.70;;
74100;SDS011;62462;52.530;21.682;2023-02-03T02:11:18;3.75;;;1.80;;
74100;SDS011;62462;52.530;21.682;2023-02-03T02:13:45;5.85;;;2.47;;
74100;SDS011;62462;52.530;21.682;2023-02-03T02:19:20;6.45;;;2.55;;
74100;SDS011;62462;52.530;21.682;2023-02-03T02:33:35;4.90;;;3.22;;
74100;SDS011;62462;52.530;21.682;2023-02-03T02:41:22;5.15;;;2.97;;
74100;SDS011;62462;52.530;21.682;2023-02-03T02:44:15;5.43;;;3.05;;
74100;SDS011;62462;52.530;21.682;2023-02-03T02:47:04;8.20;;;3.80;;
74100;SDS011;62462;52.530;21.682;2023-02-03T02:49:46;6.00;;;3.10;;
74100;SDS011;62462;52.530;21.682;2023-02-03T02:52:16;5.57;;;3.30;;
74100;SDS011;62462;52.530;21.682;2023-02-03T02:54:44;7.15;;;3.13;;
74100;SDS011;62462;52.530;21.682;2023-02-03T02:57:15;4.63;;;3.13;;
74100;SDS011;62462;52.530;21.682;2023-02-03T02:59:44;6.85;;;3.20;;
74100;SDS011;62462;52.530;21.682;2023-02-03T03:02:11;3.70;;;2.78;;
74100;SDS011;62462;52.530;21.682;2023-02-03T03:04:37;7.63;;;3.80;;
74100;SDS011;62462;52.530;21.682;2023-02-03T03:07:05;4.83;;;3.30;;
74100;SDS011;62462;52.530;21.682;2023-02-03T03:09:37;5.43;;;3.33;;
74100;SDS011;62462;52.530;21.682;2023-02-03T03:12:16;6.97;;;3.22;;
74100;SDS011;62462;52.530;21.682;2023-02-03T03:14:49;8.93;;;3.65;;
74100;SDS011;62462;52.530;21.682;2023-02-03T03:17:23;5.07;;;3.33;;
74100;SDS011;62462;52.530;21.682;2023-02-03T03:19:54;6.10;;;3.60;;
74100;SDS011;62462;52.530;21.682;2023-02-03T03:22:23;6.47;;;3.33;;
74100;SDS011;62462;52.530;21.682;2023-02-03T03:24:59;6.68;;;3.55;;
74100;SDS011;62462;52.530;21.682;2023-02-03T03:27:31;11.55;;;3.83;;
74100;SDS011;62462;52.530;21.682;2023-02-03T03:31:01;8.27;;;3.67;;
74100;SDS011;62462;52.530;21.682;2023-02-03T03:33:00;7.50;;;3.72;;
74100;SDS011;62462;52.530;21.682;2023-02-03T03:35:27;7.05;;;3.38;;
74100;SDS011;62462;52.530;21.682;2023-02-03T03:38:11;7.03;;;3.83;;
74100;SDS011;62462;52.530;21.682;2023-02-03T03:44:01;7.07;;;3.30;;
74100;SDS011;62462;52.530;21.682;2023-02-03T03:46:31;9.77;;;3.88;;
74100;SDS011;62462;52.530;21.682;2023-02-03T03:49:03;7.23;;;3.73;;
74100;SDS011;62462;52.530;21.682;2023-02-03T03:51:33;8.10;;;3.63;;
74100;SDS011;62462;52.530;21.682;2023-02-03T03:54:06;7.03;;;3.33;;
74100;SDS011;62462;52.530;21.682;2023-02-03T03:56:35;7.07;;;4.13;;
74100;SDS011;62462;52.530;21.682;2023-02-03T03:59:10;5.97;;;3.50;;
74100;SDS011;62462;52.530;21.682;2023-02-03T04:01:39;7.43;;;3.40;;
74100;SDS011;62462;52.530;21.682;2023-02-03T04:04:06;6.57;;;3.20;;
74100;SDS011;62462;52.530;21.682;2023-02-03T04:06:36;7.47;;;3.97;;
74100;SDS011;62462;52.530;21.682;2023-02-03T04:09:02;12.43;;;4.55;;
74100;SDS011;62462;52.530;21.682;2023-02-03T04:11:29;11.53;;;4.17;;
74100;SDS011;62462;52.530;21.682;2023-02-03T04:14:13;7.65;;;3.95;;
74100;SDS011;62462;52.530;21.682;2023-02-03T04:16:39;8.77;;;3.78;;
74100;SDS011;62462;52.530;21.682;2023-02-03T04:19:05;8.68;;;3.83;;
74100;SDS011;62462;52.530;21.682;2023-02-03T04:21:30;8.18;;;3.58;;
74100;SDS011;62462;52.530;21.682;2023-02-03T04:23:57;8.83;;;3.27;;
74100;SDS011;62462;52.530;21.682;2023-02-03T04:26:23;6.15;;;2.78;;
74100;SDS011;62462;52.530;21.682;2023-02-03T04:28:48;5.97;;;2.92;;
74100;SDS011;62462;52.530;21.682;2023-02-03T04:31:15;6.30;;;2.75;;
74100;SDS011;62462;52.530;21.682;2023-02-03T04:33:41;4.30;;;2.47;;
74100;SDS011;62462;52.530;21.682;2023-02-03T04:36:07;6.33;;;2.60;;
74100;SDS011;62462;52.530;21.682;2023-02-03T04:38:33;6.60;;;2.83;;
74100;SDS011;62462;52.530;21.682;2023-02-03T04:40:59;8.45;;;3.10;;
74100;SDS011;62462;52.530;21.682;2023-02-03T04:43:24;7.37;;;2.50;;
74100;SDS011;62462;52.530;21.682;2023-02-03T04:45:50;6.03;;;2.80;;
74100;SDS011;62462;52.530;21.682;2023-02-03T04:48:16;4.73;;;3.03;;
74100;SDS011;62462;52.530;21.682;2023-02-03T04:50:41;4.77;;;2.60;;
74100;SDS011;62462;52.530;21.682;2023-02-03T04:53:07;6.13;;;3.23;;
74100;SDS011;62462;52.530;21.682;2023-02-03T04:55:33;5.15;;;3.28;;
74100;SDS011;62462;52.530;21.682;2023-02-03T04:57:59;10.13;;;3.60;;
74100;SDS011;62462;52.530;21.682;2023-02-03T05:00:25;5.33;;;3.00;;
74100;SDS011;62462;52.530;21.682;2023-02-03T05:02:52;11.10;;;3.20;;
74100;SDS011;62462;52.530;21.682;2023-02-03T05:05:17;7.87;;;3.53;;
74100;SDS011;62462;52.530;21.682;2023-02-03T05:07:43;8.57;;;3.60;;
74100;SDS011;62462;52.530;21.682;2023-02-03T05:10:09;5.27;;;3.13;;
74100;SDS011;62462;52.530;21.682;2023-02-03T05:12:35;26.97;;;13.00;;
74100;SDS011;62462;52.530;21.682;2023-02-03T05:15:01;4.90;;;2.77;;
74100;SDS011;62462;52.530;21.682;2023-02-03T05:17:26;7.13;;;3.20;;
74100;SDS011;62462;52.530;21.682;2023-02-03T05:19:52;7.20;;;3.27;;
74100;SDS011;62462;52.530;21.682;2023-02-03T05:22:18;8.30;;;3.00;;
74100;SDS011;62462;52.530;21.682;2023-02-03T05:24:44;7.40;;;3.37;;
74100;SDS011;62462;52.530;21.682;2023-02-03T05:27:09;10.07;;;4.63;;
74100;SDS011;62462;52.530;21.682;2023-02-03T05:29:35;7.30;;;3.27;;
74100;SDS011;62462;52.530;21.682;2023-02-03T05:32:01;7.30;;;3.30;;
74100;SDS011;62462;52.530;21.682;2023-02-03T05:34:26;6.70;;;3.40;;
74100;SDS011;62462;52.530;21.682;2023-02-03T05:36:52;6.77;;;3.30;;
74100;SDS011;62462;52.530;21.682;2023-02-03T05:39:18;6.30;;;3.07;;
74100;SDS011;62462;52.530;21.682;2023-02-03T05:41:43;8.47;;;3.40;;
74100;SDS011;62462;52.530;21.682;2023-02-03T05:44:22;58.97;;;20.20;;
74100;SDS011;62462;52.530;21.682;2023-02-03T05:46:51;65.57;;;22.30;;
74100;SDS011;62462;52.530;21.682;2023-02-03T05:49:18;50.67;;;18.27;;
74100;SDS011;62462;52.530;21.682;2023-02-03T05:51:44;28.60;;;11.57;;
74100;SDS011;62462;52.530;21.682;2023-02-03T05:54:11;18.63;;;6.97;;
74100;SDS011;62462;52.530;21.682;2023-02-03T05:56:37;7.87;;;4.20;;
74100;SDS011;62462;52.530;21.682;2023-02-03T05:59:03;8.57;;;3.93;;
74100;SDS011;62462;52.530;21.682;2023-02-03T06:01:29;9.37;;;3.83;;
74100;SDS011;62462;52.530;21.682;2023-02-03T06:03:56;7.97;;;3.60;;
74100;SDS011;62462;52.530;21.682;2023-02-03T06:06:21;13.13;;;4.87;;
74100;SDS011;62462;52.530;21.682;2023-02-03T06:08:47;5.93;;;2.93;;
74100;SDS011;62462;52.530;21.682;2023-02-03T06:11:15;6.60;;;3.30;;
74100;SDS011;62462;52.530;21.682;2023-02-03T06:13:40;8.20;;;3.20;;
74100;SDS011;62462;52.530;21.682;2023-02-03T06:16:06;7.17;;;2.90;;
74100;SDS011;62462;52.530;21.682;2023-02-03T06:18:32;6.13;;;3.37;;
74100;SDS011;62462;52.530;21.682;2023-02-03T06:20:58;7.77;;;3.47;;
74100;SDS011;62462;52.530;21.682;2023-02-03T06:23:23;6.47;;;2.80;;
74100;SDS011;62462;52.530;21.682;2023-02-03T06:25:50;6.00;;;2.77;;
74100;SDS011;62462;52.530;21.682;2023-02-03T06:28:16;7.30;;;3.40;;
74100;SDS011;62462;52.530;21.682;2023-02-03T06:30:42;7.20;;;3.17;;
74100;SDS011;62462;52.530;21.682;2023-02-03T06:33:08;6.50;;;3.23;;
74100;SDS011;62462;52.530;21.682;2023-02-03T06:35:34;8.00;;;3.70;;
74100;SDS011;62462;52.530;21.682;2023-02-03T06:38:00;6.00;;;2.87;;
74100;SDS011;62462;52.530;21.682;2023-02-03T06:40:26;7.40;;;3.00;;
74100;SDS011;62462;52.530;21.682;2023-02-03T06:42:51;8.57;;;4.00;;
74100;SDS011;62462;52.530;21.682;2023-02-03T06:45:17;8.73;;;3.70;;
74100;SDS011;62462;52.530;21.682;2023-02-03T06:47:43;8.97;;;3.90;;
74100;SDS011;62462;52.530;21.682;2023-02-03T06:50:10;8.83;;;3.50;;
74100;SDS011;62462;52.530;21.682;2023-02-03T06:52:38;9.03;;;4.73;;
74100;SDS011;62462;52.530;21.682;2023-02-03T06:55:04;10.13;;;4.20;;
74100;SDS011;62462;52.530;21.682;2023-02-03T06:57:30;8.33;;;3.97;;
74100;SDS011;62462;52.530;21.682;2023-02-03T06:59:56;9.03;;;3.87;;
74100;SDS011;62462;52.530;21.682;2023-02-03T07:02:22;13.10;;;3.93;;
74100;SDS011;62462;52.530;21.682;2023-02-03T07:04:48;7.93;;;3.47;;
74100;SDS011;62462;52.530;21.682;2023-02-03T07:07:13;9.67;;;4.13;;
74100;SDS011;62462;52.530;21.682;2023-02-03T07:09:39;11.30;;;4.10;;
74100;SDS011;62462;52.530;21.682;2023-02-03T07:12:05;8.83;;;3.90;;
74100;SDS011;62462;52.530;21.682;2023-02-03T07:14:32;10.80;;;5.00;;
74100;SDS011;62462;52.530;21.682;2023-02-03T07:17:03;11.60;;;5.60;;
74100;SDS011;62462;52.530;21.682;2023-02-03T07:19:29;10.80;;;5.10;;
74100;SDS011;62462;52.530;21.682;2023-02-03T07:21:55;9.20;;;4.47;;
74100;SDS011;62462;52.530;21.682;2023-02-03T07:24:20;7.60;;;4.50;;
74100;SDS011;62462;52.530;21.682;2023-02-03T07:26:46;12.10;;;4.87;;
74100;SDS011;62462;52.530;21.682;2023-02-03T07:29:12;14.70;;;5.60;;
74100;SDS011;62462;52.530;21.682;2023-02-03T07:31:37;9.50;;;4.13;;
74100;SDS011;62462;52.530;21.682;2023-02-03T07:34:03;13.32;;;5.35;;
74100;SDS011;62462;52.530;21.682;2023-02-03T07:36:30;9.37;;;4.80;;
74100;SDS011;62462;52.530;21.682;2023-02-03T07:38:56;11.50;;;6.00;;
74100;SDS011;62462;52.530;21.682;2023-02-03T07:41:22;15.63;;;6.53;;
74100;SDS011;62462;52.530;21.682;2023-02-03T07:43:48;14.40;;;6.40;;
74100;SDS011;62462;52.530;21.682;2023-02-03T07:46:14;12.80;;;6.05;;
74100;SDS011;62462;52.530;21.682;2023-02-03T07:48:40;16.33;;;6.03;;
74100;SDS011;62462;52.530;21.682;2023-02-03T07:51:06;12.27;;;6.17;;
74100;SDS011;62462;52.530;21.682;2023-02-03T07:53:32;13.20;;;6.07;;
74100;SDS011;62462;52.530;21.682;2023-02-03T07:55:59;12.27;;;6.00;;
74100;SDS011;62462;52.530;21.682;2023-02-03T07:58:25;14.57;;;6.75;;
74100;SDS011;62462;52.530;21.682;2023-02-03T08:00:51;14.47;;;6.50;;
74100;SDS011;62462;52.530;21.682;2023-02-03T08:03:16;16.23;;;7.32;;
74100;SDS011;62462;52.530;21.682;2023-02-03T08:05:42;14.47;;;7.13;;
74100;SDS011;62462;52.530;21.682;2023-02-03T08:08:08;19.60;;;7.50;;
74100;SDS011;62462;52.530;21.682;2023-02-03T08:10:33;16.13;;;7.30;;
74100;SDS011;62462;52.530;21.682;2023-02-03T08:12:59;14.63;;;7.70;;
74100;SDS011;62462;52.530;21.682;2023-02-03T08:15:25;13.27;;;7.55;;
74100;SDS011;62462;52.530;21.682;2023-02-03T08:17:51;19.23;;;8.50;;
74100;SDS011;62462;52.530;21.682;2023-02-03T08:20:16;19.27;;;8.60;;
74100;SDS011;62462;52.530;21.682;2023-02-03T08:22:42;17.83;;;8.70;;
74100;SDS011;62462;52.530;21.682;2023-02-03T08:25:08;23.17;;;10.30;;
74100;SDS011;62462;52.530;21.682;2023-02-03T08:27:35;17.83;;;8.35;;
74100;SDS011;62462;52.530;21.682;2023-02-03T08:30:00;17.88;;;8.30;;
74100;SDS011;62462;52.530;21.682;2023-02-03T08:32:27;16.67;;;8.77;;
74100;SDS011;62462;52.530;21.682;2023-02-03T08:34:53;20.17;;;9.63;;
74100;SDS011;62462;52.530;21.682;2023-02-03T08:37:20;18.75;;;9.18;;
74100;SDS011;62462;52.530;21.682;2023-02-03T08:39:51;15.80;;;8.02;;
74100;SDS011;62462;52.530;21.682;2023-02-03T08:42:18;15.23;;;7.25;;
74100;SDS011;62462;52.530;21.682;2023-02-03T08:44:45;16.20;;;7.45;;
74100;SDS011;62462;52.530;21.682;2023-02-03T08:47:10;15.07;;;7.70;;
74100;SDS011;62462;52.530;21.682;2023-02-03T08:49:37;15.02;;;7.82;;
74100;SDS011;62462;52.530;21.682;2023-02-03T08:52:06;13.65;;;7.32;;
74100;SDS011;62462;52.530;21.682;2023-02-03T08:54:34;14.48;;;6.88;;
74100;SDS011;62462;52.530;21.682;2023-02-03T08:57:00;15.60;;;7.30;;
74100;SDS011;62462;52.530;21.682;2023-02-03T08:59:26;13.73;;;7.50;;
74100;SDS011;62462;52.530;21.682;2023-02-03T09:01:53;12.85;;;6.32;;
74100;SDS011;62462;52.530;21.682;2023-02-03T09:04:19;15.93;;;7.85;;
74100;SDS011;62462;52.530;21.682;2023-02-03T09:06:49;15.25;;;7.43;;
74100;SDS011;62462;52.530;21.682;2023-02-03T09:09:18;12.57;;;7.03;;
74100;SDS011;62462;52.530;21.682;2023-02-03T09:11:44;11.52;;;6.53;;
74100;SDS011;62462;52.530;21.682;2023-02-03T09:14:10;12.48;;;6.40;;
74100;SDS011;62462;52.530;21.682;2023-02-03T09:16:36;11.98;;;6.38;;
74100;SDS011;62462;52.530;21.682;2023-02-03T09:19:02;10.02;;;5.50;;
74100;SDS011;62462;52.530;21.682;2023-02-03T09:21:28;10.43;;;4.97;;
74100;SDS011;62462;52.530;21.682;2023-02-03T09:23:53;12.20;;;5.80;;
74100;SDS011;62462;52.530;21.682;2023-02-03T09:26:19;10.23;;;5.40;;
74100;SDS011;62462;52.530;21.682;2023-02-03T09:28:45;12.57;;;5.22;;
74100;SDS011;62462;52.530;21.682;2023-02-03T09:31:12;13.50;;;5.47;;
74100;SDS011;62462;52.530;21.682;2023-02-03T09:33:42;9.75;;;5.07;;
74100;SDS011;62462;52.530;21.682;2023-02-03T09:36:08;11.40;;;4.88;;
74100;SDS011;62462;52.530;21.682;2023-02-03T09:38:34;8.88;;;4.43;;
74100;SDS011;62462;52.530;21.682;2023-02-03T09:43:39;11.73;;;6.05;;
74100;SDS011;62462;52.530;21.682;2023-02-03T09:46:17;24.67;;;10.77;;
74100;SDS011;62462;52.530;21.682;2023-02-03T09:48:50;11.25;;;4.82;;
74100;SDS011;62462;52.530;21.682;2023-02-03T09:51:36;9.30;;;5.47;;
74100;SDS011;62462;52.530;21.682;2023-02-03T09:54:18;9.25;;;4.43;;
74100;SDS011;62462;52.530;21.682;2023-02-03T09:57:08;8.75;;;4.30;;
74100;SDS011;62462;52.530;21.682;2023-02-03T09:59:48;8.55;;;4.47;;
74100;SDS011;62462;52.530;21.682;2023-02-03T10:05:00;18.40;;;8.35;;
74100;SDS011;62462;52.530;21.682;2023-02-03T10:10:08;10.25;;;4.32;;
74100;SDS011;62462;52.530;21.682;2023-02-03T10:15:55;25.48;;;11.18;;
74100;SDS011;62462;52.530;21.682;2023-02-03T10:18:25;13.55;;;5.82;;
74100;SDS011;62462;52.530;21.682;2023-02-03T10:20:55;13.30;;;6.10;;
74100;SDS011;62462;52.530;21.682;2023-02-03T10:23:59;10.07;;;4.20;;
74100;SDS011;62462;52.530;21.682;2023-02-03T10:26:26;8.30;;;3.70;;
74100;SDS011;62462;52.530;21.682;2023-02-03T10:28:54;9.98;;;3.67;;
74100;SDS011;62462;52.530;21.682;2023-02-03T10:31:21;9.43;;;3.58;;
74100;SDS011;62462;52.530;21.682;2023-02-03T10:33:59;7.10;;;3.33;;
74100;SDS011;62462;52.530;21.682;2023-02-03T10:39:18;9.40;;;3.17;;
74100;SDS011;62462;52.530;21.682;2023-02-03T10:41:53;7.63;;;2.92;;
74100;SDS011;62462;52.530;21.682;2023-02-03T10:44:20;7.35;;;3.22;;
74100;SDS011;62462;52.530;21.682;2023-02-03T10:46:54;9.02;;;3.90;;
74100;SDS011;62462;52.530;21.682;2023-02-03T10:49:19;9.27;;;3.58;;
74100;SDS011;62462;52.530;21.682;2023-02-03T10:51:50;6.63;;;3.30;;
74100;SDS011;62462;52.530;21.682;2023-02-03T10:54:28;9.55;;;3.53;;
74100;SDS011;62462;52.530;21.682;2023-02-03T10:57:03;7.15;;;3.50;;
74100;SDS011;62462;52.530;21.682;2023-02-03T10:59:35;7.20;;;3.85;;
74100;SDS011;62462;52.530;21.682;2023-02-03T11:02:06;8.38;;;3.60;;
74100;SDS011;62462;52.530;21.682;2023-02-03T11:04:34;6.20;;;3.05;;
74100;SDS011;62462;52.530;21.682;2023-02-03T11:07:01;9.32;;;3.60;;
74100;SDS011;62462;52.530;21.682;2023-02-03T11:09:35;15.52;;;3.72;;
74100;SDS011;62462;52.530;21.682;2023-02-03T11:12:12;5.82;;;3.05;;
74100;SDS011;62462;52.530;21.682;2023-02-03T11:14:49;5.15;;;2.72;;
74100;SDS011;62462;52.530;21.682;2023-02-03T11:17:26;7.20;;;3.03;;
74100;SDS011;62462;52.530;21.682;2023-02-03T11:20:00;5.35;;;2.92;;
74100;SDS011;62462;52.530;21.682;2023-02-03T11:22:37;5.43;;;2.33;;
74100;SDS011;62462;52.530;21.682;2023-02-03T11:25:15;6.45;;;2.60;;
74100;SDS011;62462;52.530;21.682;2023-02-03T11:27:46;6.82;;;2.55;;
74100;SDS011;62462;52.530;21.682;2023-02-03T11:32:56;4.85;;;2.10;;
74100;SDS011;62462;52.530;21.682;2023-02-03T11:35:25;7.82;;;2.97;;
74100;SDS011;62462;52.530;21.682;2023-02-03T11:37:57;5.50;;;2.60;;
74100;SDS011;62462;52.530;21.682;2023-02-03T11:45:24;5.05;;;2.80;;
74100;SDS011;62462;52.530;21.682;2023-02-03T11:47:59;7.85;;;3.10;;
74100;SDS011;62462;52.530;21.682;2023-02-03T11:56:25;4.15;;;2.22;;
74100;SDS011;62462;52.530;21.682;2023-02-03T12:10:04;6.05;;;2.90;;
74100;SDS011;62462;52.530;21.682;2023-02-03T12:29:18;4.20;;;1.80;;
74100;SDS011;62462;52.530;21.682;2023-02-03T12:51:25;11.68;;;4.20;;
74100;SDS011;62462;52.530;21.682;2023-02-03T12:57:53;7.45;;;2.88;;
74100;SDS011;62462;52.530;21.682;2023-02-03T13:08:56;9.07;;;3.83;;
74100;SDS011;62462;52.530;21.682;2023-02-03T13:11:52;7.72;;;4.00;;
74100;SDS011;62462;52.530;21.682;2023-02-03T13:14:30;8.95;;;3.22;;
74100;SDS011;62462;52.530;21.682;2023-02-03T13:17:03;10.25;;;3.10;;
74100;SDS011;62462;52.530;21.682;2023-02-03T13:19:38;5.05;;;2.28;;
74100;SDS011;62462;52.530;21.682;2023-02-03T13:22:11;12.65;;;4.75;;
74100;SDS011;62462;52.530;21.682;2023-02-03T13:24:40;13.13;;;5.97;;
74100;SDS011;62462;52.530;21.682;2023-02-03T13:27:15;17.30;;;6.30;;
74100;SDS011;62462;52.530;21.682;2023-02-03T13:42:53;7.07;;;3.72;;
74100;SDS011;62462;52.530;21.682;2023-02-03T13:48:18;17.98;;;7.32;;
74100;SDS011;62462;52.530;21.682;2023-02-03T13:50:48;11.75;;;4.40;;
74100;SDS011;62462;52.530;21.682;2023-02-03T13:53:22;15.20;;;5.97;;
74100;SDS011;62462;52.530;21.682;2023-02-03T13:58:19;26.92;;;10.02;;
74100;SDS011;62462;52.530;21.682;2023-02-03T14:00:58;9.98;;;3.97;;
74100;SDS011;62462;52.530;21.682;2023-02-03T14:05:56;24.60;;;11.68;;
74100;SDS011;62462;52.530;21.682;2023-02-03T14:16:42;12.75;;;6.47;;
74100;SDS011;62462;52.530;21.682;2023-02-03T14:19:12;13.00;;;6.13;;
74100;SDS011;62462;52.530;21.682;2023-02-03T14:24:12;90.60;;;25.35;;
74100;SDS011;62462;52.530;21.682;2023-02-03T14:26:46;40.00;;;12.73;;
74100;SDS011;62462;52.530;21.682;2023-02-03T14:29:25;9.48;;;4.28;;
74100;SDS011;62462;52.530;21.682;2023-02-03T14:31:57;14.23;;;5.30;;
74100;SDS011;62462;52.530;21.682;2023-02-03T14:37:28;10.70;;;5.95;;
74100;SDS011;62462;52.530;21.682;2023-02-03T14:51:06;12.73;;;5.57;;
74100;SDS011;62462;52.530;21.682;2023-02-03T14:57:40;23.55;;;10.65;;
74100;SDS011;62462;52.530;21.682;2023-02-03T15:05:50;18.70;;;8.65;;
74100;SDS011;62462;52.530;21.682;2023-02-03T15:08:38;16.50;;;8.18;;
74100;SDS011;62462;52.530;21.682;2023-02-03T15:13:48;13.90;;;5.28;;
74100;SDS011;62462;52.530;21.682;2023-02-03T15:16:16;10.50;;;4.65;;
74100;SDS011;62462;52.530;21.682;2023-02-03T15:18:43;12.93;;;5.32;;
74100;SDS011;62462;52.530;21.682;2023-02-03T15:21:17;7.25;;;3.47;;
74100;SDS011;62462;52.530;21.682;2023-02-03T15:23:44;19.42;;;10.13;;
74100;SDS011;62462;52.530;21.682;2023-02-03T15:26:16;9.18;;;4.47;;
74100;SDS011;62462;52.530;21.682;2023-02-03T15:28:52;7.97;;;4.13;;
74100;SDS011;62462;52.530;21.682;2023-02-03T15:31:40;22.88;;;10.73;;
74100;SDS011;62462;52.530;21.682;2023-02-03T15:34:19;12.52;;;6.30;;
74100;SDS011;62462;52.530;21.682;2023-02-03T15:36:47;11.43;;;5.78;;
74100;SDS011;62462;52.530;21.682;2023-02-03T15:41:46;10.50;;;5.40;;
74100;SDS011;62462;52.530;21.682;2023-02-03T15:44:34;18.15;;;8.77;;
74100;SDS011;62462;52.530;21.682;2023-02-03T15:52:39;21.42;;;11.40;;
74100;SDS011;62462;52.530;21.682;2023-02-03T15:55:11;24.55;;;11.93;;
74100;SDS011;62462;52.530;21.682;2023-02-03T15:58:03;24.45;;;11.00;;
74100;SDS011;62462;52.530;21.682;2023-02-03T16:00:39;35.75;;;17.98;;
74100;SDS011;62462;52.530;21.682;2023-02-03T16:03:14;25.88;;;13.77;;
74100;SDS011;62462;52.530;21.682;2023-02-03T16:05:43;31.55;;;14.02;;
74100;SDS011;62462;52.530;21.682;2023-02-03T16:08:33;38.75;;;19.63;;
74100;SDS011;62462;52.530;21.682;2023-02-03T16:10:59;71.30;;;30.52;;
74100;SDS011;62462;52.530;21.682;2023-02-03T16:13:26;34.53;;;17.25;;
74100;SDS011;62462;52.530;21.682;2023-02-03T16:18:32;82.55;;;38.72;;
74100;SDS011;62462;52.530;21.682;2023-02-03T16:21:03;51.15;;;23.58;;
74100;SDS011;62462;52.530;21.682;2023-02-03T16:23:29;44.65;;;18.23;;
74100;SDS011;62462;52.530;21.682;2023-02-03T16:26:02;43.22;;;20.15;;
74100;SDS011;62462;52.530;21.682;2023-02-03T16:28:29;47.08;;;18.85;;
74100;SDS011;62462;52.530;21.682;2023-02-03T16:31:15;59.80;;;21.40;;
74100;SDS011;62462;52.530;21.682;2023-02-03T16:34:02;40.95;;;15.50;;
74100;SDS011;62462;52.530;21.682;2023-02-03T16:36:59;36.78;;;15.98;;
74100;SDS011;62462;52.530;21.682;2023-02-03T16:39:44;57.05;;;21.50;;
74100;SDS011;62462;52.530;21.682;2023-02-03T16:42:39;37.63;;;16.90;;
74100;SDS011;62462;52.530;21.682;2023-02-03T16:45:23;40.47;;;14.68;;
74100;SDS011;62462;52.530;21.682;2023-02-03T16:48:11;41.38;;;16.20;;
74100;SDS011;62462;52.530;21.682;2023-02-03T16:50:56;33.78;;;15.75;;
74100;SDS011;62462;52.530;21.682;2023-02-03T16:53:28;33.70;;;15.13;;
74100;SDS011;62462;52.530;21.682;2023-02-03T16:55:57;28.70;;;12.52;;
74100;SDS011;62462;52.530;21.682;2023-02-03T16:58:24;26.10;;;12.30;;
74100;SDS011;62462;52.530;21.682;2023-02-03T17:00:51;41.92;;;16.23;;
74100;SDS011;62462;52.530;21.682;2023-02-03T17:03:21;36.47;;;14.90;;
74100;SDS011;62462;52.530;21.682;2023-02-03T17:05:49;28.80;;;12.32;;
74100;SDS011;62462;52.530;21.682;2023-02-03T17:08:16;38.13;;;17.98;;
74100;SDS011;62462;52.530;21.682;2023-02-03T17:10:44;31.63;;;15.07;;
74100;SDS011;62462;52.530;21.682;2023-02-03T17:13:12;50.60;;;20.47;;
74100;SDS011;62462;52.530;21.682;2023-02-03T17:15:42;51.87;;;19.00;;
74100;SDS011;62462;52.530;21.682;2023-02-03T17:18:14;41.30;;;16.57;;
74100;SDS011;62462;52.530;21.682;2023-02-03T17:20:41;35.50;;;16.57;;
74100;SDS011;62462;52.530;21.682;2023-02-03T17:23:08;24.87;;;12.63;;
74100;SDS011;62462;52.530;21.682;2023-02-03T17:25:35;31.57;;;14.27;;
74100;SDS011;62462;52.530;21.682;2023-02-03T17:28:05;32.45;;;13.27;;
74100;SDS011;62462;52.530;21.682;2023-02-03T17:30:32;31.67;;;14.68;;
74100;SDS011;62462;52.530;21.682;2023-02-03T17:33:05;36.05;;;15.23;;
74100;SDS011;62462;52.530;21.682;2023-02-03T17:35:36;29.77;;;14.13;;
74100;SDS011;62462;52.530;21.682;2023-02-03T17:38:03;34.03;;;15.98;;
74100;SDS011;62462;52.530;21.682;2023-02-03T17:40:29;26.83;;;11.98;;
74100;SDS011;62462;52.530;21.682;2023-02-03T17:42:55;35.20;;;15.50;;
74100;SDS011;62462;52.530;21.682;2023-02-03T17:45:21;37.83;;;16.27;;